createdAt,value
2018-06-10T00:00:41.507Z,972.73
2018-06-10T00:01:41.744Z,972.75
2018-06-10T00:02:42.009Z,972.75
2018-06-10T00:03:42.261Z,972.75
2018-06-10T00:04:42.492Z,972.79
2018-06-10T00:05:42.734Z,972.76
2018-06-10T00:06:42.980Z,972.77
2018-06-10T00:07:43.203Z,972.75
2018-06-10T00:08:43.455Z,972.73
2018-06-10T00:09:43.699Z,972.71
2018-06-10T00:10:43.929Z,972.74
2018-06-10T00:11:44.174Z,972.68
2018-06-10T00:12:44.417Z,972.66
2018-06-10T00:13:44.661Z,972.64
2018-06-10T00:14:44.910Z,972.62
2018-06-10T00:15:45.152Z,972.58
2018-06-10T00:16:45.391Z,972.55
2018-06-10T00:17:45.627Z,972.52
2018-06-10T00:18:45.853Z,972.50
2018-06-10T00:19:46.112Z,972.55
2018-06-10T00:20:46.354Z,972.52
2018-06-10T00:21:46.598Z,972.56
2018-06-10T00:22:46.869Z,972.57
2018-06-10T00:23:47.074Z,972.58
2018-06-10T00:24:47.313Z,972.62
2018-06-10T00:25:47.566Z,972.63
2018-06-10T00:26:47.811Z,972.67
2018-06-10T00:27:48.043Z,972.61
2018-06-10T00:28:48.285Z,972.63
2018-06-10T00:29:48.526Z,972.62
2018-06-10T00:30:48.770Z,972.60
2018-06-10T00:31:49.013Z,972.60
2018-06-10T00:32:49.254Z,972.65
2018-06-10T00:33:49.490Z,972.63
2018-06-10T00:34:49.760Z,972.62
2018-06-10T00:35:49.984Z,972.68
2018-06-10T00:36:50.223Z,972.67
2018-06-10T00:37:50.467Z,972.62
2018-06-10T00:38:50.704Z,972.63
2018-06-10T00:39:50.946Z,972.59
2018-06-10T00:40:51.183Z,972.60
2018-06-10T00:41:51.423Z,972.57
2018-06-10T00:42:51.660Z,972.54
2018-06-10T00:43:51.905Z,972.53
2018-06-10T00:44:52.147Z,972.57
2018-06-10T00:45:52.389Z,972.56
2018-06-10T00:46:52.633Z,972.57
2018-06-10T00:47:52.889Z,972.58
2018-06-10T00:48:53.109Z,972.59
2018-06-10T00:49:53.357Z,972.59
2018-06-10T00:50:53.596Z,972.62
2018-06-10T00:51:53.834Z,972.60
2018-06-10T00:52:54.092Z,972.59
2018-06-10T00:53:54.304Z,972.61
2018-06-10T00:54:54.546Z,972.61
2018-06-10T00:55:54.791Z,972.59
2018-06-10T00:56:55.029Z,972.60
2018-06-10T00:57:55.265Z,972.56
2018-06-10T00:58:55.509Z,972.56
2018-06-10T00:59:55.763Z,972.54
2018-06-10T01:00:55.999Z,972.49
2018-06-10T01:01:56.236Z,972.49
2018-06-10T01:02:56.473Z,972.44
2018-06-10T01:03:56.717Z,972.48
2018-06-10T01:04:56.962Z,972.44
2018-06-10T01:05:57.197Z,972.45
2018-06-10T01:06:57.438Z,972.50
2018-06-10T01:07:57.678Z,972.54
2018-06-10T01:08:57.963Z,972.55
2018-06-10T01:09:58.173Z,972.59
2018-06-10T01:10:58.412Z,972.61
2018-06-10T01:11:58.651Z,972.68
2018-06-10T01:12:58.918Z,972.67
2018-06-10T01:13:59.119Z,972.68
2018-06-10T01:14:59.365Z,972.64
2018-06-10T01:15:59.615Z,972.64
2018-06-10T01:16:59.840Z,972.60
2018-06-10T01:18:00.076Z,972.57
2018-06-10T01:19:00.326Z,972.54
2018-06-10T01:20:00.562Z,972.52
2018-06-10T01:21:00.810Z,972.53
2018-06-10T01:22:01.048Z,972.52
2018-06-10T01:23:01.289Z,972.55
2018-06-10T01:24:01.521Z,972.55
2018-06-10T01:25:01.760Z,972.54
2018-06-10T01:26:02.018Z,972.54
2018-06-10T01:27:02.260Z,972.58
2018-06-10T01:28:02.513Z,972.57
2018-06-10T01:29:02.749Z,972.57
2018-06-10T01:30:02.982Z,972.58
2018-06-10T01:31:03.222Z,972.58
2018-06-10T01:32:03.475Z,972.57
2018-06-10T01:33:03.706Z,972.55
2018-06-10T01:34:03.943Z,972.56
2018-06-10T01:35:04.174Z,972.49
2018-06-10T01:36:04.403Z,972.50
2018-06-10T01:37:04.650Z,972.44
2018-06-10T01:38:04.905Z,972.46
2018-06-10T01:39:05.142Z,972.46
2018-06-10T01:40:05.370Z,972.47
2018-06-10T01:41:05.614Z,972.48
2018-06-10T01:42:05.858Z,972.46
2018-06-10T01:43:06.102Z,972.47
2018-06-10T01:44:06.347Z,972.46
2018-06-10T01:45:06.597Z,972.43
2018-06-10T01:46:06.846Z,972.44
2018-06-10T01:47:07.084Z,972.43
2018-06-10T01:48:07.330Z,972.41
2018-06-10T01:49:07.576Z,972.34
2018-06-10T01:50:07.816Z,972.36
2018-06-10T01:51:08.086Z,972.34
2018-06-10T01:52:08.303Z,972.32
2018-06-10T01:53:08.552Z,972.29
2018-06-10T01:54:08.790Z,972.31
2018-06-10T01:55:09.036Z,972.30
2018-06-10T01:56:09.281Z,972.33
2018-06-10T01:57:09.527Z,972.34
2018-06-10T01:58:09.773Z,972.33
2018-06-10T01:59:10.016Z,972.32
2018-06-10T02:00:10.235Z,972.31
2018-06-10T02:01:10.486Z,972.32
2018-06-10T02:02:10.725Z,972.27
2018-06-10T02:03:10.962Z,972.33
2018-06-10T02:04:11.211Z,972.34
2018-06-10T02:05:11.455Z,972.33
2018-06-10T02:06:11.684Z,972.31
2018-06-10T02:07:11.933Z,972.33
2018-06-10T02:08:12.172Z,972.30
2018-06-10T02:09:12.410Z,972.27
2018-06-10T02:10:12.644Z,972.23
2018-06-10T02:11:12.877Z,972.19
2018-06-10T02:12:13.121Z,972.20
2018-06-10T02:13:13.366Z,972.14
2018-06-10T02:14:13.619Z,972.13
2018-06-10T02:15:13.854Z,972.07
2018-06-10T02:16:14.095Z,972.09
2018-06-10T02:17:14.340Z,972.09
2018-06-10T02:18:14.594Z,972.11
2018-06-10T02:19:14.825Z,972.09
2018-06-10T02:20:15.066Z,972.13
2018-06-10T02:21:15.301Z,972.11
2018-06-10T02:22:15.561Z,972.18
2018-06-10T02:23:15.783Z,972.21
2018-06-10T02:24:16.034Z,972.23
2018-06-10T02:25:16.265Z,972.21
2018-06-10T02:26:16.507Z,972.22
2018-06-10T02:27:16.754Z,972.19
2018-06-10T02:28:17.008Z,972.18
2018-06-10T02:29:17.242Z,972.14
2018-06-10T02:30:17.480Z,972.14
2018-06-10T02:31:17.723Z,972.12
2018-06-10T02:32:17.968Z,972.08
2018-06-10T02:33:18.213Z,972.08
2018-06-10T02:34:18.452Z,972.09
2018-06-10T02:35:18.693Z,972.07
2018-06-10T02:36:18.948Z,972.12
2018-06-10T02:37:19.193Z,972.11
2018-06-10T02:38:19.409Z,972.18
2018-06-10T02:39:19.654Z,972.18
2018-06-10T02:40:19.899Z,972.17
2018-06-10T02:41:20.140Z,972.19
2018-06-10T02:42:20.394Z,972.19
2018-06-10T02:43:20.618Z,972.19
2018-06-10T02:44:20.867Z,972.17
2018-06-10T02:45:21.126Z,972.14
2018-06-10T02:46:21.357Z,972.14
2018-06-10T02:47:21.603Z,972.08
2018-06-10T02:48:21.858Z,972.05
2018-06-10T02:49:22.090Z,972.05
2018-06-10T02:50:22.333Z,972.11
2018-06-10T02:51:22.577Z,972.09
2018-06-10T02:52:22.823Z,972.11
2018-06-10T02:53:23.061Z,972.14
2018-06-10T02:54:23.299Z,972.17
2018-06-10T02:55:23.547Z,972.17
2018-06-10T02:56:23.797Z,972.20
2018-06-10T02:57:24.036Z,972.22
2018-06-10T02:58:24.271Z,972.25
2018-06-10T02:59:24.514Z,972.24
2018-06-10T03:00:24.749Z,972.22
2018-06-10T03:01:24.985Z,972.23
2018-06-10T03:02:25.231Z,972.19
2018-06-10T03:03:25.483Z,972.19
2018-06-10T03:04:25.730Z,972.18
2018-06-10T03:05:25.967Z,972.19
2018-06-10T03:06:26.211Z,972.17
2018-06-10T03:07:26.457Z,972.16
2018-06-10T03:08:26.692Z,972.15
2018-06-10T03:09:26.940Z,972.17
2018-06-10T03:10:27.179Z,972.20
2018-06-10T03:11:27.421Z,972.19
2018-06-10T03:12:27.664Z,972.25
2018-06-10T03:13:27.903Z,972.26
2018-06-10T03:14:28.143Z,972.26
2018-06-10T03:15:28.382Z,972.35
2018-06-10T03:16:28.630Z,972.32
2018-06-10T03:17:28.873Z,972.35
2018-06-10T03:18:29.107Z,972.33
2018-06-10T03:19:29.352Z,972.37
2018-06-10T03:20:29.593Z,972.35
2018-06-10T03:21:29.834Z,972.36
2018-06-10T03:22:30.097Z,972.38
2018-06-10T03:23:30.318Z,972.36
2018-06-10T03:24:30.562Z,972.38
2018-06-10T03:25:30.805Z,972.36
2018-06-10T03:26:31.105Z,972.36
2018-06-10T03:27:31.291Z,972.35
2018-06-10T03:28:31.549Z,972.34
2018-06-10T03:29:31.775Z,972.34
2018-06-10T03:30:32.015Z,972.32
2018-06-10T03:31:32.242Z,972.33
2018-06-10T03:32:32.490Z,972.34
2018-06-10T03:33:32.736Z,972.33
2018-06-10T03:34:32.977Z,972.33
2018-06-10T03:35:33.223Z,972.33
2018-06-10T03:36:33.461Z,972.35
2018-06-10T03:37:33.704Z,972.29
2018-06-10T03:38:33.942Z,972.32
2018-06-10T03:39:34.196Z,972.31
2018-06-10T03:40:34.440Z,972.29
2018-06-10T03:41:34.683Z,972.27
2018-06-10T03:42:34.926Z,972.27
2018-06-10T03:43:35.172Z,972.25
2018-06-10T03:44:35.411Z,972.26
2018-06-10T03:45:35.658Z,972.26
2018-06-10T03:46:35.907Z,972.24
2018-06-10T03:47:36.143Z,972.24
2018-06-10T03:48:36.385Z,972.23
2018-06-10T03:49:36.625Z,972.30
2018-06-10T03:50:36.867Z,972.30
2018-06-10T03:51:37.109Z,972.31
2018-06-10T03:52:37.352Z,972.30
2018-06-10T03:53:37.605Z,972.27
2018-06-10T03:54:37.834Z,972.24
2018-06-10T03:55:38.079Z,972.22
2018-06-10T03:56:38.315Z,972.25
2018-06-10T03:57:38.574Z,972.23
2018-06-10T03:58:38.810Z,972.22
2018-06-10T03:59:39.073Z,972.21
2018-06-10T04:00:39.309Z,972.20
2018-06-10T04:01:39.590Z,972.18
2018-06-10T04:02:39.805Z,972.21
2018-06-10T04:03:40.054Z,972.22
2018-06-10T04:04:40.293Z,972.21
2018-06-10T04:05:40.536Z,972.20
2018-06-10T04:06:40.799Z,972.22
2018-06-10T04:07:41.037Z,972.18
2018-06-10T04:08:41.309Z,972.20
2018-06-10T04:09:41.550Z,972.22
2018-06-10T04:10:41.786Z,972.23
2018-06-10T04:11:42.044Z,972.16
2018-06-10T04:12:42.287Z,972.17
2018-06-10T04:13:42.504Z,972.17
2018-06-10T04:14:42.743Z,972.14
2018-06-10T04:15:42.993Z,972.16
2018-06-10T04:16:43.232Z,972.17
2018-06-10T04:17:43.477Z,972.15
2018-06-10T04:18:43.705Z,972.15
2018-06-10T04:19:43.959Z,972.16
2018-06-10T04:20:44.198Z,972.18
2018-06-10T04:21:44.444Z,972.19
2018-06-10T04:22:44.811Z,972.19
2018-06-10T04:23:44.971Z,972.22
2018-06-10T04:24:45.214Z,972.25
2018-06-10T04:25:45.505Z,972.25
2018-06-10T04:26:45.740Z,972.26
2018-06-10T04:27:45.972Z,972.26
2018-06-10T04:28:46.204Z,972.27
2018-06-10T04:29:46.447Z,972.29
2018-06-10T04:30:46.686Z,972.29
2018-06-10T04:31:46.924Z,972.35
2018-06-10T04:32:47.171Z,972.38
2018-06-10T04:33:47.415Z,972.36
2018-06-10T04:34:47.668Z,972.38
2018-06-10T04:35:47.884Z,972.37
2018-06-10T04:36:48.144Z,972.40
2018-06-10T04:37:48.365Z,972.41
2018-06-10T04:38:48.608Z,972.44
2018-06-10T04:39:48.859Z,972.45
2018-06-10T04:40:49.082Z,972.48
2018-06-10T04:41:49.329Z,972.48
2018-06-10T04:42:49.573Z,972.44
2018-06-10T04:43:49.811Z,972.47
2018-06-10T04:44:50.066Z,972.46
2018-06-10T04:45:50.285Z,972.45
2018-06-10T04:46:50.546Z,972.45
2018-06-10T04:47:50.783Z,972.48
2018-06-10T04:48:51.026Z,972.44
2018-06-10T04:49:51.268Z,972.45
2018-06-10T04:50:51.513Z,972.49
2018-06-10T04:51:51.758Z,972.46
2018-06-10T04:52:52.003Z,972.44
2018-06-10T04:53:52.245Z,972.44
2018-06-10T04:54:52.496Z,972.45
2018-06-10T04:55:52.731Z,972.44
2018-06-10T04:56:52.981Z,972.44
2018-06-10T04:57:53.220Z,972.44
2018-06-10T04:58:53.471Z,972.42
2018-06-10T04:59:53.711Z,972.44
2018-06-10T05:00:53.955Z,972.40
2018-06-10T05:01:54.200Z,972.44
2018-06-10T05:02:54.435Z,972.43
2018-06-10T05:03:54.691Z,972.42
2018-06-10T05:04:54.933Z,972.41
2018-06-10T05:05:55.166Z,972.39
2018-06-10T05:06:55.417Z,972.35
2018-06-10T05:07:55.654Z,972.35
2018-06-10T05:08:55.896Z,972.31
2018-06-10T05:09:56.130Z,972.33
2018-06-10T05:10:56.371Z,972.30
2018-06-10T05:11:56.616Z,972.31
2018-06-10T05:12:56.861Z,972.32
2018-06-10T05:13:57.109Z,972.36
2018-06-10T05:14:57.363Z,972.35
2018-06-10T05:15:57.598Z,972.38
2018-06-10T05:16:57.898Z,972.41
2018-06-10T05:17:58.161Z,972.37
2018-06-10T05:18:58.420Z,972.33
2018-06-10T05:19:58.676Z,972.35
2018-06-10T05:20:58.948Z,972.42
2018-06-10T05:21:59.196Z,972.34
2018-06-10T05:22:59.437Z,972.34
2018-06-10T05:23:59.675Z,972.34
2018-06-10T05:24:59.913Z,972.34
2018-06-10T05:26:00.181Z,972.36
2018-06-10T05:27:00.395Z,972.37
2018-06-10T05:28:00.642Z,972.39
2018-06-10T05:29:00.887Z,972.42
2018-06-10T05:30:01.196Z,972.43
2018-06-10T05:31:01.488Z,972.40
2018-06-10T05:32:01.864Z,972.43
2018-06-10T05:33:02.106Z,972.46
2018-06-10T05:34:02.430Z,972.45
2018-06-10T05:35:02.728Z,972.46
2018-06-10T05:36:02.978Z,972.49
2018-06-10T05:37:03.230Z,972.50
2018-06-10T05:38:03.516Z,972.50
2018-06-10T05:39:03.773Z,972.51
2018-06-10T05:40:04.074Z,972.53
2018-06-10T05:41:04.249Z,972.58
2018-06-10T05:42:04.497Z,972.58
2018-06-10T05:43:04.820Z,972.62
2018-06-10T05:44:05.060Z,972.54
2018-06-10T05:45:05.374Z,972.55
2018-06-10T05:46:05.670Z,972.56
2018-06-10T05:47:05.868Z,972.57
2018-06-10T05:48:06.101Z,972.56
2018-06-10T05:49:06.351Z,972.56
2018-06-10T05:50:06.577Z,972.57
2018-06-10T05:51:06.815Z,972.61
2018-06-10T05:52:07.065Z,972.60
2018-06-10T05:53:07.300Z,972.58
2018-06-10T05:54:07.540Z,972.55
2018-06-10T05:55:07.772Z,972.58
2018-06-10T05:56:08.032Z,972.54
2018-06-10T05:57:08.269Z,972.54
2018-06-10T05:58:08.511Z,972.55
2018-06-10T05:59:08.756Z,972.56
2018-06-10T06:00:09.001Z,972.55
2018-06-10T06:01:09.236Z,972.58
2018-06-10T06:02:09.479Z,972.56
2018-06-10T06:03:09.723Z,972.55
2018-06-10T06:04:09.951Z,972.59
2018-06-10T06:05:10.200Z,972.58
2018-06-10T06:06:10.434Z,972.59
2018-06-10T06:07:10.696Z,972.62
2018-06-10T06:08:10.921Z,972.63
2018-06-10T06:09:11.155Z,972.65
2018-06-10T06:10:11.401Z,972.63
2018-06-10T06:11:11.650Z,972.62
2018-06-10T06:12:11.883Z,972.63
2018-06-10T06:13:12.119Z,972.67
2018-06-10T06:14:12.361Z,972.61
2018-06-10T06:15:12.600Z,972.67
2018-06-10T06:16:12.847Z,972.64
2018-06-10T06:17:13.092Z,972.63
2018-06-10T06:18:13.325Z,972.62
2018-06-10T06:19:13.567Z,972.68
2018-06-10T06:20:13.795Z,972.68
2018-06-10T06:21:14.041Z,972.72
2018-06-10T06:22:14.304Z,972.72
2018-06-10T06:23:14.518Z,972.72
2018-06-10T06:24:14.758Z,972.74
2018-06-10T06:25:15.002Z,972.76
2018-06-10T06:26:15.233Z,972.75
2018-06-10T06:27:15.479Z,972.76
2018-06-10T06:28:15.710Z,972.80
2018-06-10T06:29:15.967Z,972.80
2018-06-10T06:30:16.197Z,972.79
2018-06-10T06:31:16.418Z,972.79
2018-06-10T06:32:16.661Z,972.78
2018-06-10T06:33:16.941Z,972.79
2018-06-10T06:34:17.151Z,972.81
2018-06-10T06:35:17.391Z,972.74
2018-06-10T06:36:17.642Z,972.77
2018-06-10T06:37:17.876Z,972.78
2018-06-10T06:38:18.116Z,972.74
2018-06-10T06:39:18.400Z,972.76
2018-06-10T06:40:18.605Z,972.83
2018-06-10T06:41:18.843Z,972.77
2018-06-10T06:42:19.065Z,972.77
2018-06-10T06:43:19.308Z,972.78
2018-06-10T06:44:19.582Z,972.77
2018-06-10T06:45:19.775Z,972.76
2018-06-10T06:46:20.030Z,972.80
2018-06-10T06:47:20.289Z,972.83
2018-06-10T06:48:20.552Z,972.78
2018-06-10T06:49:20.759Z,972.79
2018-06-10T06:50:20.998Z,972.79
2018-06-10T06:51:21.236Z,972.79
2018-06-10T06:52:21.477Z,972.82
2018-06-10T06:53:21.727Z,972.80
2018-06-10T06:54:21.963Z,972.83
2018-06-10T06:55:22.189Z,972.80
2018-06-10T06:56:22.434Z,972.81
2018-06-10T06:57:22.673Z,972.77
2018-06-10T06:58:22.931Z,972.79
2018-06-10T06:59:23.148Z,972.83
2018-06-10T07:00:23.385Z,972.82
2018-06-10T07:01:23.621Z,972.79
2018-06-10T07:02:23.886Z,972.77
2018-06-10T07:03:24.090Z,972.77
2018-06-10T07:04:24.333Z,972.72
2018-06-10T07:05:24.586Z,972.75
2018-06-10T07:06:24.822Z,972.73
2018-06-10T07:07:34.080Z,972.68
2018-06-10T07:08:34.122Z,972.70
2018-06-10T07:09:26.909Z,972.66
2018-06-10T07:10:42.238Z,972.74
2018-06-10T07:11:37.058Z,972.78
2018-06-10T07:12:35.404Z,972.81
2018-06-10T07:13:41.461Z,972.78
2018-06-10T07:14:41.224Z,972.85
2018-06-10T07:15:27.573Z,972.89
2018-06-10T07:16:27.816Z,972.90
2018-06-10T07:17:28.034Z,972.92
2018-06-10T07:18:28.279Z,972.93
2018-06-10T07:19:28.546Z,972.94
2018-06-10T07:20:28.783Z,972.99
2018-06-10T07:21:29.046Z,972.98
2018-06-10T07:22:29.261Z,973.00
2018-06-10T07:23:29.530Z,973.02
2018-06-10T07:24:29.746Z,973.01
2018-06-10T07:25:30.023Z,973.04
2018-06-10T07:26:30.241Z,973.08
2018-06-10T07:27:30.490Z,973.04
2018-06-10T07:28:30.788Z,973.05
2018-06-10T07:29:31.045Z,973.04
2018-06-10T07:30:31.387Z,973.03
2018-06-10T07:31:31.585Z,973.07
2018-06-10T07:34:21.291Z,973.05
2018-06-10T07:35:13.968Z,973.07
2018-06-10T07:36:14.226Z,973.06
2018-06-10T07:37:15.150Z,973.09
2018-06-10T07:38:14.686Z,973.06
2018-06-10T07:39:22.560Z,973.08
2018-06-10T07:40:22.968Z,973.08
2018-06-10T07:41:15.551Z,973.08
2018-06-10T07:42:15.781Z,973.07
2018-06-10T07:43:16.024Z,973.07
2018-06-10T07:44:16.267Z,973.08
2018-06-10T07:45:16.583Z,973.06
2018-06-10T07:46:16.857Z,973.11
2018-06-10T07:47:17.220Z,973.14
2018-06-10T07:48:26.656Z,973.15
2018-06-10T07:49:26.422Z,973.15
2018-06-10T07:50:18.186Z,973.15
2018-06-10T07:51:18.426Z,973.15
2018-06-10T07:52:18.618Z,973.19
2018-06-10T07:53:28.515Z,973.16
2018-06-10T07:54:19.150Z,973.20
2018-06-10T07:55:19.335Z,973.16
2018-06-10T07:56:19.613Z,973.17
2018-06-10T07:57:19.809Z,973.17
2018-06-10T07:58:20.051Z,973.19
2018-06-10T07:59:20.309Z,973.23
2018-06-10T08:00:20.528Z,973.19
2018-06-10T08:01:20.771Z,973.26
2018-06-10T08:02:21.035Z,973.21
2018-06-10T08:03:28.912Z,973.19
2018-06-10T08:04:21.613Z,973.21
2018-06-10T08:05:30.500Z,973.24
2018-06-10T08:06:22.229Z,973.25
2018-06-10T08:07:22.492Z,973.31
2018-06-10T08:08:22.711Z,973.30
2018-06-10T08:09:31.565Z,973.31
2018-06-10T08:10:23.298Z,973.38
2018-06-10T08:11:31.175Z,973.38
2018-06-10T08:12:23.834Z,973.42
2018-06-10T08:13:31.713Z,973.41
2018-06-10T08:14:24.399Z,973.43
2018-06-10T08:15:24.637Z,973.40
2018-06-10T08:16:32.570Z,973.41
2018-06-10T08:17:33.846Z,973.39
2018-06-10T08:18:34.331Z,973.47
2018-06-10T08:19:33.671Z,973.44
2018-06-10T08:20:34.990Z,973.44
2018-06-10T08:21:36.406Z,973.47
2018-06-10T08:22:36.768Z,973.45
2018-06-10T08:23:34.926Z,973.42
2018-06-10T08:24:27.648Z,973.38
2018-06-10T08:25:36.444Z,973.33
2018-06-10T08:26:37.003Z,973.32
2018-06-10T08:27:37.263Z,973.36
2018-06-10T08:28:37.696Z,973.26
2018-06-10T08:29:38.061Z,973.34
2018-06-10T08:30:38.585Z,973.35
2018-06-10T08:31:39.778Z,973.32
2018-06-10T08:32:40.027Z,973.32
2018-06-10T08:33:40.302Z,973.36
2018-06-10T08:34:39.780Z,973.37
2018-06-10T08:35:40.754Z,973.37
2018-06-10T08:36:40.032Z,973.37
2018-06-10T08:37:31.809Z,973.33
2018-06-10T08:38:40.609Z,973.26
2018-06-10T08:39:40.936Z,973.28
2018-06-10T08:40:32.702Z,973.26
2018-06-10T08:41:40.631Z,973.26
2018-06-10T08:42:33.339Z,973.27
2018-06-10T08:43:42.354Z,973.24
2018-06-10T08:44:33.840Z,973.23
2018-06-10T08:45:34.312Z,973.20
2018-06-10T08:46:40.345Z,973.21
2018-06-10T08:47:44.741Z,973.19
2018-06-10T08:48:34.964Z,973.19
2018-06-10T08:49:35.208Z,973.13
2018-06-10T08:50:35.489Z,973.14
2018-06-10T08:51:35.686Z,973.11
2018-06-10T08:52:35.921Z,973.13
2018-06-10T08:53:36.190Z,973.10
2018-06-10T08:54:36.497Z,973.08
2018-06-10T08:55:36.708Z,973.10
2018-06-10T08:56:36.957Z,973.06
2018-06-10T08:57:37.226Z,973.06
2018-06-10T08:58:37.507Z,973.11
2018-06-10T08:59:47.984Z,973.19
2018-06-10T09:00:38.451Z,973.21
2018-06-10T09:01:38.731Z,973.22
2018-06-10T09:02:38.736Z,973.23
2018-06-10T09:03:38.965Z,973.18
2018-06-10T09:04:39.190Z,973.18
2018-06-10T09:05:39.408Z,973.18
2018-06-10T09:06:39.673Z,973.17
2018-06-10T09:07:39.890Z,973.14
2018-06-10T09:08:40.200Z,973.12
2018-06-10T09:09:40.439Z,973.12
2018-06-10T09:10:40.725Z,973.11
2018-06-10T09:11:40.965Z,973.13
2018-06-10T09:12:41.184Z,973.09
2018-06-10T09:13:41.445Z,973.07
2018-06-10T09:14:41.796Z,973.14
2018-06-10T09:15:41.918Z,973.15
2018-06-10T09:16:42.215Z,973.18
2018-06-10T09:17:42.421Z,973.18
2018-06-10T09:18:42.688Z,973.19
2018-06-10T09:19:42.941Z,973.22
2018-06-10T09:20:43.155Z,973.23
2018-06-10T09:21:43.380Z,973.22
2018-06-10T09:22:43.627Z,973.24
2018-06-10T09:23:43.889Z,973.28
2018-06-10T09:24:44.119Z,973.25
2018-06-10T09:25:44.349Z,973.28
2018-06-10T09:26:54.306Z,973.33
2018-06-10T09:27:53.480Z,973.33
2018-06-10T09:28:45.269Z,973.34
2018-06-10T09:29:54.134Z,973.31
2018-06-10T09:30:54.520Z,973.33
2018-06-10T09:31:54.906Z,973.33
2018-06-10T09:32:55.293Z,973.30
2018-06-10T09:33:55.708Z,973.28
2018-06-10T09:34:56.023Z,973.29
2018-06-10T09:35:47.766Z,973.28
2018-06-10T09:36:47.978Z,973.29
2018-06-10T09:37:48.229Z,973.25
2018-06-10T09:38:57.110Z,973.25
2018-06-10T09:39:48.836Z,973.28
2018-06-10T09:40:49.089Z,973.19
2018-06-10T09:41:58.006Z,973.18
2018-06-10T09:42:58.457Z,973.16
2018-06-10T09:43:58.762Z,973.19
2018-06-10T09:44:59.118Z,973.15
2018-06-10T09:45:50.872Z,973.17
2018-06-10T09:46:51.136Z,973.12
2018-06-10T09:47:51.334Z,973.10
2018-06-10T09:49:00.238Z,973.06
2018-06-10T09:50:01.591Z,973.06
2018-06-10T09:51:00.810Z,973.07
2018-06-10T09:51:52.593Z,973.07
2018-06-10T09:53:02.419Z,973.06
2018-06-10T09:53:53.038Z,973.10
2018-06-10T09:54:53.341Z,973.14
2018-06-10T09:56:03.262Z,973.16
2018-06-10T09:57:02.407Z,973.23
2018-06-10T09:58:02.883Z,973.19
2018-06-10T09:59:02.982Z,973.25
2018-06-10T10:00:03.399Z,973.32
2018-06-10T10:01:03.724Z,973.34
2018-06-10T10:02:04.128Z,973.42
2018-06-10T10:03:04.632Z,973.37
2018-06-10T10:04:04.873Z,973.40
2018-06-10T10:05:05.279Z,973.49
2018-06-10T10:06:05.691Z,973.58
2018-06-10T10:06:57.390Z,973.48
2018-06-10T10:07:57.636Z,973.77
2018-06-10T10:08:57.855Z,973.74
2018-06-10T10:10:06.811Z,974.14
2018-06-10T10:11:07.120Z,974.28
2018-06-10T10:12:07.556Z,973.40
2018-06-10T10:13:07.932Z,973.49
2018-06-10T10:14:08.318Z,973.50
2018-06-10T10:15:08.669Z,973.46
2018-06-10T10:16:09.205Z,973.34
2018-06-10T10:17:10.474Z,973.28
2018-06-10T10:18:09.803Z,973.28
2018-06-10T10:19:10.125Z,973.34
2018-06-10T10:20:01.875Z,973.36
2018-06-10T10:21:02.369Z,973.38
2018-06-10T10:22:02.616Z,973.50
2018-06-10T10:23:02.846Z,973.48
2018-06-10T10:24:03.268Z,973.49
2018-06-10T10:25:03.499Z,973.32
2018-06-10T10:26:03.809Z,973.40
2018-06-10T10:27:04.054Z,973.40
2018-06-10T10:28:04.367Z,973.60
2018-06-10T10:29:05.351Z,974.10
2018-06-10T10:30:05.066Z,973.59
2018-06-10T10:31:05.338Z,973.77
2018-06-10T10:32:05.673Z,973.57
2018-06-10T10:33:06.695Z,973.49
2018-06-10T10:34:06.281Z,973.56
2018-06-10T10:35:06.552Z,973.55
2018-06-10T10:36:06.850Z,973.59
2018-06-10T10:37:07.196Z,973.55
2018-06-10T10:38:07.493Z,973.47
2018-06-10T10:39:07.835Z,973.50
2018-06-10T10:40:08.117Z,973.49
2018-06-10T10:41:08.407Z,973.45
2018-06-10T10:42:08.744Z,973.35
2018-06-10T10:43:09.015Z,973.38
2018-06-10T10:44:09.327Z,973.33
2018-06-10T10:45:09.600Z,973.33
2018-06-10T10:46:09.881Z,973.36
2018-06-10T10:47:10.213Z,973.40
2018-06-10T10:48:10.548Z,973.40
2018-06-10T10:49:10.813Z,973.32
2018-06-10T10:50:11.170Z,973.38
2018-06-10T10:51:11.440Z,973.36
2018-06-10T10:52:11.699Z,973.36
2018-06-10T10:53:11.915Z,973.35
2018-06-10T10:54:12.166Z,973.33
2018-06-10T10:55:12.396Z,973.32
2018-06-10T10:56:12.678Z,973.35
2018-06-10T10:57:12.945Z,973.31
2018-06-10T10:58:13.192Z,973.36
2018-06-10T10:59:13.443Z,973.42
2018-06-10T11:00:13.743Z,973.37
2018-06-10T11:01:14.063Z,973.31
2018-06-10T11:02:14.322Z,973.28
2018-06-10T11:03:14.666Z,973.31
2018-06-10T11:04:15.028Z,973.44
2018-06-10T11:05:15.580Z,973.85
2018-06-10T11:06:15.724Z,973.66
2018-06-10T11:07:16.013Z,973.50
2018-06-10T11:08:16.343Z,973.50
2018-06-10T11:09:16.609Z,973.44
2018-06-10T11:10:17.031Z,973.49
2018-06-10T11:11:17.211Z,973.31
2018-06-10T11:12:17.534Z,973.24
2018-06-10T11:13:17.764Z,973.41
2018-06-10T11:14:18.136Z,973.51
2018-06-10T11:15:18.331Z,973.68
2018-06-10T11:16:18.640Z,973.52
2018-06-10T11:17:18.929Z,973.75
2018-06-10T11:18:19.175Z,973.66
2018-06-10T11:19:19.560Z,973.48
2018-06-10T11:20:20.113Z,973.54
2018-06-10T11:21:20.230Z,973.66
2018-06-10T11:22:20.654Z,973.70
2018-06-10T11:23:20.933Z,973.74
2018-06-10T11:24:21.271Z,973.76
2018-06-10T11:25:21.555Z,973.81
2018-06-10T11:26:21.777Z,974.10
2018-06-10T11:27:22.141Z,974.42
2018-06-10T11:28:22.310Z,974.61
2018-06-10T11:29:22.565Z,974.64
2018-06-10T11:30:22.823Z,974.60
2018-06-10T11:31:23.079Z,974.47
2018-06-10T11:32:23.328Z,973.70
2018-06-10T11:33:23.585Z,973.34
2018-06-10T11:34:23.866Z,973.30
2018-06-10T11:35:24.097Z,973.29
2018-06-10T11:36:24.353Z,973.31
2018-06-10T11:37:24.736Z,973.35
2018-06-10T11:38:24.863Z,973.30
2018-06-10T11:39:25.122Z,973.33
2018-06-10T11:40:25.369Z,973.28
2018-06-10T11:41:25.635Z,973.22
2018-06-10T11:42:25.953Z,973.23
2018-06-10T11:43:26.147Z,973.13
2018-06-10T11:44:26.399Z,973.22
2018-06-10T11:45:26.653Z,973.36
2018-06-10T11:46:26.923Z,973.17
2018-06-10T11:47:27.171Z,973.08
2018-06-10T11:48:27.430Z,973.03
2018-06-10T11:49:27.679Z,973.10
2018-06-10T11:50:27.937Z,973.07
2018-06-10T11:51:28.183Z,973.18
2018-06-10T11:52:28.441Z,973.23
2018-06-10T11:53:28.686Z,973.32
2018-06-10T11:54:28.952Z,973.35
2018-06-10T11:55:29.210Z,973.26
2018-06-10T11:56:29.454Z,973.09
2018-06-10T11:57:29.710Z,973.22
2018-06-10T11:58:29.964Z,973.13
2018-06-10T11:59:30.228Z,973.20
2018-06-10T12:00:30.477Z,973.18
2018-06-10T12:01:30.735Z,973.19
2018-06-10T12:02:30.984Z,973.22
2018-06-10T12:03:31.238Z,973.12
2018-06-10T12:04:31.490Z,973.13
2018-06-10T12:05:31.743Z,973.21
2018-06-10T12:06:31.990Z,973.07
2018-06-10T12:07:32.236Z,973.28
2018-06-10T12:08:32.485Z,973.33
2018-06-10T12:09:32.741Z,973.24
2018-06-10T12:10:33.003Z,973.24
2018-06-10T12:11:33.251Z,973.15
2018-06-10T12:12:33.512Z,973.03
2018-06-10T12:13:33.769Z,972.94
2018-06-10T12:14:34.031Z,972.99
2018-06-10T12:15:34.288Z,973.05
2018-06-10T12:16:34.551Z,973.06
2018-06-10T12:17:34.789Z,973.14
2018-06-10T12:18:35.049Z,973.04
2018-06-10T12:19:35.303Z,973.00
2018-06-10T12:20:35.569Z,973.02
2018-06-10T12:21:35.813Z,972.89
2018-06-10T12:22:36.150Z,972.93
2018-06-10T12:23:36.343Z,973.01
2018-06-10T12:24:36.578Z,973.27
2018-06-10T12:25:36.825Z,973.12
2018-06-10T12:26:37.084Z,972.95
2018-06-10T12:27:37.342Z,973.07
2018-06-10T12:28:37.605Z,973.03
2018-06-10T12:29:37.864Z,973.22
2018-06-10T12:30:38.124Z,973.04
2018-06-10T12:31:38.377Z,972.97
2018-06-10T12:32:38.630Z,973.08
2018-06-10T12:33:38.888Z,972.99